createdAt,value
2019-02-16T00:01:30.536Z,9.27
2019-02-16T00:04:01.404Z,10.67
2019-02-16T00:06:31.759Z,11.73
2019-02-16T00:09:02.442Z,17.30
2019-02-16T00:11:34.746Z,22.93
2019-02-16T00:14:05.061Z,22.60
2019-02-16T00:16:35.783Z,21.03
2019-02-16T00:19:06.391Z,20.70
2019-02-16T00:21:36.749Z,19.97
2019-02-16T00:24:07.428Z,23.20
2019-02-16T00:26:37.778Z,21.80
2019-02-16T00:29:09.187Z,21.77
2019-02-16T00:31:39.945Z,23.87
2019-02-16T00:34:10.259Z,25.07
2019-02-16T00:36:40.550Z,23.90
2019-02-16T00:39:11.249Z,25.93
2019-02-16T00:41:41.761Z,22.47
2019-02-16T00:44:12.085Z,23.53
2019-02-16T00:46:42.922Z,21.73
2019-02-16T00:49:13.499Z,24.03
2019-02-16T00:51:43.848Z,22.60
2019-02-16T00:54:14.468Z,22.20
2019-02-16T00:56:45.401Z,23.93
2019-02-16T00:59:15.682Z,22.00
2019-02-16T01:01:46.206Z,21.97
2019-02-16T01:04:17.000Z,23.60
2019-02-16T01:06:47.335Z,21.83
2019-02-16T01:09:17.633Z,18.43
2019-02-16T01:11:48.318Z,19.50
2019-02-16T01:14:18.598Z,18.23
2019-02-16T01:16:49.030Z,16.37
2019-02-16T01:19:19.860Z,21.47
2019-02-16T01:21:50.240Z,19.33
2019-02-16T01:24:20.615Z,17.50
2019-02-16T01:26:50.909Z,17.27
2019-02-16T01:29:21.199Z,16.10
2019-02-16T01:31:51.843Z,14.20
2019-02-16T01:34:22.108Z,12.70
2019-02-16T01:36:52.407Z,14.27
2019-02-16T01:39:23.147Z,13.77
2019-02-16T01:41:53.613Z,14.20
2019-02-16T01:44:23.904Z,11.93
2019-02-16T01:46:54.714Z,13.67
2019-02-16T01:49:25.288Z,12.50
2019-02-16T01:51:55.668Z,14.13
2019-02-16T01:54:26.051Z,11.70
2019-02-16T01:56:56.472Z,12.27
2019-02-16T01:59:27.126Z,17.33
2019-02-16T02:01:57.517Z,15.23
2019-02-16T02:04:30.634Z,22.80
2019-02-16T02:07:01.319Z,11.90
2019-02-16T02:09:31.890Z,12.67
2019-02-16T02:12:02.216Z,14.17
2019-02-16T02:14:32.938Z,11.20
2019-02-16T02:17:03.643Z,9.20
2019-02-16T02:19:33.914Z,10.33
2019-02-16T02:22:04.480Z,9.97
2019-02-16T02:24:34.753Z,13.37
2019-02-16T02:27:05.399Z,13.63
2019-02-16T02:29:35.806Z,11.10
2019-02-16T02:32:06.058Z,13.60
2019-02-16T02:34:36.694Z,14.90
2019-02-16T02:37:07.376Z,9.37
2019-02-16T02:39:37.735Z,12.73
2019-02-16T02:42:08.463Z,11.77
2019-02-16T02:44:39.121Z,8.73
2019-02-16T02:47:09.723Z,9.43
2019-02-16T02:49:40.001Z,8.43
2019-02-16T02:52:10.753Z,9.87
2019-02-16T02:54:42.106Z,9.73
2019-02-16T02:57:12.920Z,9.40
2019-02-16T02:59:43.182Z,10.03
2019-02-16T03:02:13.582Z,10.07
2019-02-16T03:04:45.308Z,13.73
2019-02-16T03:07:15.641Z,13.43
2019-02-16T03:09:45.901Z,11.37
2019-02-16T03:12:16.529Z,15.93
2019-02-16T03:14:46.834Z,10.83
2019-02-16T03:17:17.242Z,11.70
2019-02-16T03:19:47.766Z,11.33
2019-02-16T03:22:18.363Z,13.03
2019-02-16T03:24:48.634Z,9.33
2019-02-16T03:27:49.084Z,13.60
2019-02-16T03:30:41.598Z,10.67
2019-02-16T03:33:51.398Z,8.60
2019-02-16T03:37:13.811Z,9.23
2019-02-16T03:39:46.679Z,10.13
2019-02-16T03:42:17.309Z,14.83
2019-02-16T03:44:47.916Z,18.10
2019-02-16T03:47:18.194Z,11.87
2019-02-16T03:49:49.037Z,16.50
2019-02-16T03:52:19.617Z,10.33
2019-02-16T03:54:49.924Z,12.00
2019-02-16T03:57:20.706Z,14.00
2019-02-16T03:59:51.104Z,17.67
2019-02-16T04:02:20.968Z,14.10
2019-02-16T04:04:51.606Z,11.83
2019-02-16T04:07:21.901Z,12.23
2019-02-16T04:09:52.454Z,13.27
2019-02-16T04:12:23.149Z,14.00
2019-02-16T04:14:53.488Z,13.53
2019-02-16T04:17:24.219Z,11.60
2019-02-16T04:19:54.778Z,13.17
2019-02-16T04:22:25.216Z,20.10
2019-02-16T04:24:55.696Z,22.03
2019-02-16T04:27:26.333Z,21.57
2019-02-16T04:29:56.658Z,22.67
2019-02-16T04:32:27.055Z,18.07
2019-02-16T04:34:57.791Z,23.03
2019-02-16T04:37:28.458Z,17.73
2019-02-16T04:39:59.116Z,18.50
2019-02-16T04:42:29.498Z,23.57
2019-02-16T04:44:59.992Z,17.30
2019-02-16T04:47:30.677Z,16.80
2019-02-16T04:50:01.181Z,17.40
2019-02-16T04:52:34.666Z,15.07
2019-02-16T04:55:03.908Z,20.40
2019-02-16T04:57:34.217Z,19.20
2019-02-16T05:00:04.858Z,11.80
2019-02-16T05:02:35.682Z,15.00
2019-02-16T05:05:06.421Z,26.63
2019-02-16T05:07:36.816Z,19.80
2019-02-16T05:10:07.699Z,16.10
2019-02-16T05:12:38.441Z,21.87
2019-02-16T05:15:09.170Z,20.67
2019-02-16T05:17:39.802Z,27.27
2019-02-16T05:20:10.463Z,16.50
2019-02-16T05:22:44.565Z,19.90
2019-02-16T05:25:13.025Z,18.13
2019-02-16T05:27:43.866Z,24.40
2019-02-16T05:30:14.136Z,30.30
2019-02-16T05:32:44.417Z,44.20
2019-02-16T05:35:15.453Z,31.10
2019-02-16T05:37:45.749Z,35.23
2019-02-16T05:40:16.442Z,24.33
2019-02-16T05:42:46.711Z,35.87
2019-02-16T05:45:17.381Z,30.43
2019-02-16T05:47:48.104Z,30.30
2019-02-16T05:50:18.519Z,30.20
2019-02-16T05:52:54.428Z,30.23
2019-02-16T05:55:21.083Z,28.77
2019-02-16T05:57:51.363Z,33.97
2019-02-16T06:00:25.411Z,44.50
2019-02-16T06:02:56.239Z,50.77
2019-02-16T06:05:26.909Z,38.57
2019-02-16T06:07:57.206Z,30.57
2019-02-16T06:10:27.791Z,31.20
2019-02-16T06:12:58.079Z,34.03
2019-02-16T06:15:28.868Z,24.40
2019-02-16T06:17:59.153Z,26.37
2019-02-16T06:20:29.503Z,29.97
2019-02-16T06:23:04.464Z,31.17
2019-02-16T06:25:32.256Z,26.17
2019-02-16T06:28:02.574Z,28.00
2019-02-16T06:30:33.556Z,24.47
2019-02-16T06:33:04.202Z,26.57
2019-02-16T06:35:41.750Z,26.03
2019-02-16T06:38:12.349Z,26.73
2019-02-16T06:40:43.000Z,24.57
2019-02-16T06:43:13.362Z,30.27
2019-02-16T06:45:43.944Z,22.57
2019-02-16T06:48:14.223Z,20.77
2019-02-16T06:50:45.016Z,13.40
2019-02-16T06:53:15.791Z,14.10
2019-02-16T06:56:11.093Z,9.07
2019-02-16T06:58:41.745Z,7.80
2019-02-16T07:01:12.348Z,12.57
2019-02-16T07:03:42.704Z,13.73
2019-02-16T07:06:13.190Z,10.77
2019-02-16T07:08:44.291Z,9.93
2019-02-16T07:11:14.651Z,8.73
2019-02-16T07:13:44.928Z,12.23
2019-02-16T07:16:44.247Z,10.60
2019-02-16T07:19:32.435Z,10.73
2019-02-16T07:22:03.007Z,11.27
2019-02-16T07:24:33.440Z,12.13
2019-02-16T07:27:04.176Z,13.53
2019-02-16T07:29:34.537Z,14.17
2019-02-16T07:32:04.864Z,13.63
2019-02-16T07:34:35.367Z,14.17
2019-02-16T07:37:06.143Z,12.77
2019-02-16T07:39:36.424Z,13.57
2019-02-16T07:42:06.760Z,11.70
2019-02-16T07:45:02.493Z,8.43
2019-02-16T07:47:48.238Z,11.00
2019-02-16T07:50:24.456Z,15.40
2019-02-16T07:53:13.949Z,15.30
2019-02-16T07:56:06.053Z,20.47
2019-02-16T07:58:54.105Z,18.80
2019-02-16T08:01:46.340Z,17.77
2019-02-16T08:04:27.463Z,13.07
2019-02-16T08:07:17.041Z,13.77
2019-02-16T08:10:18.353Z,16.10
2019-02-16T08:13:07.546Z,12.33
2019-02-16T08:15:48.510Z,12.43
2019-02-16T08:18:37.259Z,14.43
2019-02-16T08:21:44.987Z,17.13
2019-02-16T08:24:31.781Z,12.77
2019-02-16T08:27:23.790Z,13.90
2019-02-16T08:30:25.377Z,16.87
2019-02-16T08:33:13.427Z,13.10
2019-02-16T08:36:02.644Z,11.40
2019-02-16T08:38:52.282Z,11.17
2019-02-16T08:41:41.779Z,13.10
2019-02-16T08:44:26.318Z,22.03
2019-02-16T08:47:04.175Z,13.73
2019-02-16T08:49:59.211Z,20.73
2019-02-16T08:52:51.167Z,17.17
2019-02-16T08:55:56.210Z,16.93
2019-02-16T08:58:48.865Z,16.50
2019-02-16T09:01:47.609Z,11.87
2019-02-16T09:04:35.328Z,11.50
2019-02-16T09:07:24.544Z,18.67
2019-02-16T09:10:20.260Z,9.70
2019-02-16T09:13:09.888Z,14.00
2019-02-16T09:16:11.350Z,14.30
2019-02-16T09:19:10.052Z,14.33
2019-02-16T09:22:07.119Z,10.60
2019-02-16T09:24:45.908Z,12.13
2019-02-16T09:27:37.098Z,11.13
2019-02-16T09:30:27.477Z,11.93
2019-02-16T09:33:15.465Z,11.77
2019-02-16T09:36:03.423Z,13.13
2019-02-16T09:38:39.614Z,19.73
2019-02-16T09:41:15.851Z,15.50
2019-02-16T09:44:05.126Z,12.50
2019-02-16T09:47:00.532Z,21.17
2019-02-16T09:49:58.905Z,15.40
2019-02-16T09:52:36.403Z,18.57
2019-02-16T09:55:16.921Z,11.10
2019-02-16T09:58:05.143Z,10.10
2019-02-16T10:00:41.618Z,13.47
2019-02-16T10:03:30.238Z,14.43
2019-02-16T10:06:19.843Z,10.23
2019-02-16T10:09:08.753Z,11.00
2019-02-16T10:11:47.077Z,10.07
2019-02-16T10:14:37.423Z,11.97
2019-02-16T10:17:22.398Z,13.70
2019-02-16T10:20:24.219Z,10.47
2019-02-16T10:23:02.399Z,10.50
2019-02-16T10:25:52.095Z,12.60
2019-02-16T10:28:50.935Z,15.27
2019-02-16T10:31:32.776Z,18.43
2019-02-16T10:34:20.635Z,12.60
2019-02-16T10:37:08.562Z,23.17
2019-02-16T10:39:47.086Z,18.60
2019-02-16T10:42:27.965Z,18.17
2019-02-16T10:45:15.909Z,18.17
2019-02-16T10:48:00.685Z,19.53
2019-02-16T10:50:44.426Z,21.37
2019-02-16T10:53:36.491Z,14.67
2019-02-16T10:56:33.193Z,24.47
2019-02-16T10:59:14.355Z,19.30
2019-02-16T11:02:09.695Z,14.27
2019-02-16T11:04:57.889Z,9.53
2019-02-16T11:07:39.510Z,15.63
2019-02-16T11:10:23.866Z,16.07
2019-02-16T11:13:10.651Z,13.40
2019-02-16T11:16:09.466Z,11.33
2019-02-16T11:18:53.077Z,9.67
2019-02-16T11:21:45.415Z,9.60
2019-02-16T11:24:40.757Z,10.37
2019-02-16T11:27:30.008Z,9.43
2019-02-16T11:30:12.753Z,11.23
2019-02-16T11:33:02.016Z,15.47
2019-02-16T11:35:53.933Z,12.67
2019-02-16T11:38:55.659Z,14.77
2019-02-16T11:41:43.948Z,10.23
2019-02-16T11:44:32.306Z,8.87
2019-02-16T11:47:20.679Z,9.30
2019-02-16T11:50:03.281Z,8.03
2019-02-16T11:52:53.620Z,28.13
2019-02-16T11:55:52.135Z,8.50
2019-02-16T11:58:59.407Z,11.47
2019-02-16T12:01:57.775Z,10.03
2019-02-16T12:04:46.112Z,10.97
2019-02-16T12:07:23.854Z,29.53
2019-02-16T12:10:11.099Z,9.63
2019-02-16T12:12:55.640Z,7.10
2019-02-16T12:15:47.728Z,7.50
2019-02-16T12:18:53.116Z,10.70
2019-02-16T12:21:42.631Z,5.93
2019-02-16T12:24:44.273Z,7.03
2019-02-16T12:27:39.466Z,6.40
2019-02-16T12:30:22.990Z,5.73
2019-02-16T12:33:12.388Z,6.77
2019-02-16T12:35:50.850Z,8.60
2019-02-16T12:38:38.960Z,6.77
2019-02-16T12:41:31.255Z,12.50
2019-02-16T12:44:23.939Z,7.87
2019-02-16T12:47:13.357Z,5.83
2019-02-16T12:49:53.636Z,6.93
2019-02-16T12:52:52.707Z,10.40
2019-02-16T12:55:44.770Z,6.03
2019-02-16T12:58:23.706Z,5.97
2019-02-16T13:01:10.218Z,6.87
2019-02-16T13:03:59.460Z,6.87
2019-02-16T13:06:46.869Z,5.07
2019-02-16T13:09:29.070Z,9.30
2019-02-16T13:12:14.599Z,11.70
2019-02-16T13:15:09.253Z,5.27
2019-02-16T13:18:02.663Z,5.63
2019-02-16T13:20:46.604Z,6.93
2019-02-16T13:23:28.257Z,10.10
2019-02-16T13:26:23.693Z,4.80
2019-02-16T13:29:19.263Z,8.90
2019-02-16T13:32:08.822Z,10.83
2019-02-16T13:34:46.788Z,6.67
2019-02-16T13:37:34.535Z,4.93
2019-02-16T13:40:26.907Z,6.80
2019-02-16T13:42:59.693Z,6.67
2019-02-16T13:45:47.759Z,6.93
2019-02-16T13:48:26.566Z,5.03
2019-02-16T13:51:03.702Z,5.23
2019-02-16T13:53:53.500Z,8.47
2019-02-16T13:56:38.653Z,6.03
2019-02-16T13:59:18.443Z,6.53
2019-02-16T14:02:10.747Z,6.67
2019-02-16T14:05:08.909Z,7.27
2019-02-16T14:08:01.258Z,6.83
2019-02-16T14:10:40.325Z,6.63
2019-02-16T14:13:29.043Z,7.03
2019-02-16T14:16:13.700Z,8.23
2019-02-16T14:18:44.234Z,6.30
2019-02-16T14:21:14.881Z,7.70
2019-02-16T14:23:45.165Z,6.00
2019-02-16T14:26:15.711Z,8.07
2019-02-16T14:28:46.232Z,6.50
2019-02-16T14:31:18.576Z,13.20
2019-02-16T14:33:48.986Z,9.67
2019-02-16T14:36:19.679Z,14.30
2019-02-16T14:38:55.736Z,8.83
2019-02-16T14:41:26.098Z,13.23
2019-02-16T14:43:57.011Z,13.40
2019-02-16T14:46:27.587Z,8.47
2019-02-16T14:48:57.964Z,8.93
2019-02-16T14:51:28.353Z,7.37
2019-02-16T14:53:59.068Z,11.73
2019-02-16T14:56:29.347Z,11.03
2019-02-16T14:58:59.785Z,15.57
2019-02-16T15:01:30.120Z,19.60
2019-02-16T15:04:00.814Z,20.97
2019-02-16T15:06:31.631Z,15.77
2019-02-16T15:09:01.915Z,9.33
2019-02-16T15:11:33.866Z,8.93
2019-02-16T15:14:04.320Z,11.80
2019-02-16T15:16:34.587Z,17.27
2019-02-16T15:19:05.242Z,16.20
2019-02-16T15:21:35.760Z,24.47
2019-02-16T15:24:06.039Z,27.80
2019-02-16T15:26:36.579Z,24.50
2019-02-16T15:29:06.981Z,21.80
2019-02-16T15:31:37.659Z,23.77
2019-02-16T15:34:08.227Z,17.27
2019-02-16T15:36:38.753Z,18.73
2019-02-16T15:39:09.160Z,20.93
2019-02-16T15:41:39.967Z,17.60
2019-02-16T15:44:10.843Z,24.97
2019-02-16T15:46:41.227Z,38.30
2019-02-16T15:49:12.171Z,32.93
2019-02-16T15:51:42.406Z,52.03
2019-02-16T15:54:13.005Z,23.53
2019-02-16T15:56:43.707Z,51.40
2019-02-16T15:59:14.179Z,39.70
2019-02-16T16:01:44.596Z,43.47
2019-02-16T16:04:14.904Z,57.73
2019-02-16T16:06:45.183Z,49.20
2019-02-16T16:09:30.690Z,44.90
2019-02-16T16:12:19.994Z,46.93
2019-02-16T16:15:08.083Z,50.43
2019-02-16T16:18:00.857Z,35.07
2019-02-16T16:20:36.557Z,29.93
2019-02-16T16:23:34.904Z,28.03
2019-02-16T16:26:34.149Z,19.67
2019-02-16T16:29:19.180Z,21.23
2019-02-16T16:32:14.472Z,26.80
2019-02-16T16:35:21.681Z,22.43
2019-02-16T16:38:06.365Z,20.63
2019-02-16T16:40:54.480Z,23.70
2019-02-16T16:43:53.170Z,23.70
2019-02-16T16:46:57.727Z,30.80
2019-02-16T16:49:59.426Z,31.63
2019-02-16T16:52:51.855Z,29.80
2019-02-16T16:55:50.443Z,28.87
2019-02-16T16:58:42.833Z,35.73
2019-02-16T17:01:26.808Z,42.10
2019-02-16T17:04:33.975Z,43.57
2019-02-16T17:07:27.056Z,73.37
2019-02-16T17:10:12.212Z,83.87
2019-02-16T17:13:01.436Z,70.47
2019-02-16T17:15:55.764Z,91.40
2019-02-16T17:18:46.916Z,76.33
2019-02-16T17:21:36.088Z,77.80
2019-02-16T17:24:24.290Z,82.00
2019-02-16T17:27:04.638Z,61.70
2019-02-16T17:29:56.989Z,71.63
2019-02-16T17:32:49.035Z,64.90
2019-02-16T17:35:41.099Z,68.13
2019-02-16T17:38:29.162Z,64.47
2019-02-16T17:41:11.950Z,69.63
2019-02-16T17:44:00.884Z,82.63
2019-02-16T17:46:45.454Z,60.93
2019-02-16T17:49:44.286Z,75.93
2019-02-16T17:52:23.119Z,72.87
2019-02-16T17:55:12.929Z,71.63
2019-02-16T17:57:55.987Z,70.00
2019-02-16T18:00:35.460Z,95.90
2019-02-16T18:03:20.425Z,64.70
2019-02-16T18:06:09.664Z,53.73
2019-02-16T18:09:14.008Z,62.07
2019-02-16T18:11:49.901Z,69.70
2019-02-16T18:14:54.769Z,69.03
2019-02-16T18:17:41.167Z,53.90
2019-02-16T18:20:40.112Z,64.70
2019-02-16T18:23:15.133Z,64.33
2019-02-16T18:26:10.534Z,51.70
2019-02-16T18:28:58.146Z,62.87
2019-02-16T18:31:38.285Z,62.67
2019-02-16T18:34:25.113Z,63.23
2019-02-16T18:37:12.982Z,61.33
2019-02-16T18:39:54.008Z,63.50
2019-02-16T18:42:42.805Z,67.73
2019-02-16T18:45:32.613Z,69.37
2019-02-16T18:48:21.819Z,55.00
2019-02-16T18:51:10.716Z,63.07
2019-02-16T18:54:09.009Z,56.90
2019-02-16T18:57:06.756Z,61.27
2019-02-16T18:59:46.321Z,47.03
2019-02-16T19:02:34.771Z,58.03
2019-02-16T19:05:30.389Z,46.67
2019-02-16T19:08:27.408Z,53.83
2019-02-16T19:11:25.880Z,41.03
2019-02-16T19:14:24.242Z,37.87
2019-02-16T19:17:02.099Z,42.23
2019-02-16T19:19:54.434Z,34.27
2019-02-16T19:22:33.770Z,41.50
2019-02-16T19:25:38.289Z,35.43
2019-02-16T19:28:27.782Z,34.27
2019-02-16T19:31:09.018Z,38.00
2019-02-16T19:33:52.579Z,35.73
2019-02-16T19:36:35.979Z,38.80
2019-02-16T19:39:19.869Z,30.73
2019-02-16T19:42:09.441Z,26.30
2019-02-16T19:44:57.888Z,31.27
2019-02-16T19:47:56.180Z,30.47
2019-02-16T19:50:44.623Z,37.03
2019-02-16T19:53:26.788Z,48.67
2019-02-16T19:56:22.153Z,41.93
2019-02-16T19:59:14.224Z,39.63
2019-02-16T20:02:01.575Z,41.13
2019-02-16T20:04:44.211Z,37.20
2019-02-16T20:07:33.635Z,47.13
2019-02-16T20:10:21.872Z,45.93
2019-02-16T20:13:11.135Z,45.83
2019-02-16T20:15:48.748Z,53.77
2019-02-16T20:18:40.763Z,47.93
2019-02-16T20:21:24.431Z,37.90
2019-02-16T20:24:06.276Z,40.87
2019-02-16T20:26:54.009Z,43.73
2019-02-16T20:29:33.581Z,40.50
2019-02-16T20:32:35.386Z,38.47
2019-02-16T20:35:23.409Z,35.00
2019-02-16T20:38:00.812Z,34.67
2019-02-16T20:40:48.413Z,49.50
2019-02-16T20:43:27.352Z,64.77
2019-02-16T20:46:19.502Z,66.10
2019-02-16T20:49:03.217Z,60.97
2019-02-16T20:51:42.725Z,63.90
2019-02-16T20:54:50.350Z,62.23
2019-02-16T20:57:35.606Z,54.67
2019-02-16T21:00:31.030Z,55.50
2019-02-16T21:03:30.457Z,42.73
2019-02-16T21:06:20.393Z,30.63
2019-02-16T21:09:12.679Z,33.00
2019-02-16T21:12:00.326Z,33.73
2019-02-16T21:14:55.931Z,31.30
2019-02-16T21:17:46.543Z,33.40
2019-02-16T21:20:34.603Z,31.13
2019-02-16T21:23:27.374Z,28.80
2019-02-16T21:26:05.513Z,35.07
2019-02-16T21:28:45.316Z,30.63
2019-02-16T21:31:30.289Z,36.53
2019-02-16T21:34:05.941Z,41.27
2019-02-16T21:36:44.090Z,40.10
2019-02-16T21:39:34.958Z,44.73
2019-02-16T21:42:19.522Z,23.17
2019-02-16T21:45:07.689Z,30.47
2019-02-16T21:47:55.687Z,33.10
2019-02-16T21:50:44.105Z,25.83
2019-02-16T21:53:34.139Z,28.40
2019-02-16T21:56:17.537Z,26.63
2019-02-16T21:59:18.646Z,29.87
2019-02-16T22:01:52.943Z,20.23
2019-02-16T22:04:35.826Z,24.93
2019-02-16T22:07:24.610Z,19.00
2019-02-16T22:10:25.907Z,20.73
2019-02-16T22:13:15.363Z,23.57
2019-02-16T22:15:45.978Z,27.17
2019-02-16T22:18:17.419Z,36.23
2019-02-16T22:20:47.770Z,37.43
2019-02-16T22:23:18.723Z,35.90
2019-02-16T22:25:49.253Z,38.80
2019-02-16T22:28:30.223Z,30.20
2019-02-16T22:30:52.214Z,38.57
2019-02-16T22:33:22.787Z,37.03
2019-02-16T22:35:53.692Z,39.40
2019-02-16T22:38:24.356Z,40.00
2019-02-16T22:40:54.993Z,44.67
2019-02-16T22:43:25.927Z,37.23
2019-02-16T22:45:56.461Z,33.53
2019-02-16T22:48:26.988Z,31.93
2019-02-16T22:50:57.828Z,33.17
2019-02-16T22:53:28.356Z,44.23
2019-02-16T22:55:58.886Z,26.33
2019-02-16T22:58:29.682Z,30.67
2019-02-16T23:01:00.348Z,31.60
2019-02-16T23:03:32.513Z,45.43
2019-02-16T23:06:03.459Z,41.50
2019-02-16T23:08:33.865Z,38.03
2019-02-16T23:11:05.726Z,51.30
2019-02-16T23:13:35.993Z,50.63
2019-02-16T23:16:06.319Z,43.30
2019-02-16T23:18:36.942Z,39.87
2019-02-16T23:21:08.506Z,33.90
2019-02-16T23:23:38.861Z,33.47
2019-02-16T23:26:09.896Z,27.40
2019-02-16T23:28:40.580Z,32.23
2019-02-16T23:31:10.897Z,32.97
2019-02-16T23:33:41.471Z,22.10
2019-02-16T23:36:11.997Z,26.27
2019-02-16T23:38:42.307Z,29.87
2019-02-16T23:41:12.843Z,28.00
2019-02-16T23:43:43.445Z,26.67
2019-02-16T23:46:13.762Z,23.87
2019-02-16T23:48:44.043Z,27.33
2019-02-16T23:51:14.713Z,26.17
2019-02-16T23:53:45.042Z,27.50
2019-02-16T23:56:15.307Z,31.20
2019-02-16T23:58:49.217Z,27.97
